createdAt,value
2023-04-26T00:02:15.925Z,37.19
2023-04-26T00:04:42.464Z,37.15
2023-04-26T00:07:09.161Z,37.23
2023-04-26T00:09:35.768Z,37.63
2023-04-26T00:12:02.825Z,37.10
2023-04-26T00:14:29.385Z,37.32
2023-04-26T00:16:56.395Z,37.24
2023-04-26T00:19:24.083Z,37.39
2023-04-26T00:21:50.567Z,36.99
2023-04-26T00:24:17.043Z,37.16
2023-04-26T00:26:43.865Z,37.09
2023-04-26T00:29:10.350Z,37.28
2023-04-26T00:31:36.852Z,37.38
2023-04-26T00:34:03.405Z,37.38
2023-04-26T00:36:30.006Z,37.39
2023-04-26T00:38:56.575Z,37.32
2023-04-26T00:41:24.248Z,37.08
2023-04-26T00:43:50.819Z,37.32
2023-04-26T00:46:17.636Z,37.14
2023-04-26T00:48:44.511Z,37.19
2023-04-26T00:51:12.488Z,37.00
2023-04-26T00:53:39.425Z,37.07
2023-04-26T00:56:16.899Z,37.17
2023-04-26T00:58:46.252Z,37.44
2023-04-26T01:01:13.434Z,37.30
2023-04-26T01:03:41.515Z,37.30
2023-04-26T01:06:08.283Z,37.46
2023-04-26T01:08:36.901Z,37.50
2023-04-26T01:11:04.330Z,37.33
2023-04-26T01:13:32.660Z,37.12
2023-04-26T01:16:00.009Z,37.36
2023-04-26T01:18:26.847Z,37.49
2023-04-26T01:20:53.959Z,37.04
2023-04-26T01:23:20.431Z,37.43
2023-04-26T01:25:47.973Z,37.17
2023-04-26T01:28:14.469Z,37.37
2023-04-26T01:30:41.086Z,37.19
2023-04-26T01:33:07.637Z,37.27
2023-04-26T01:35:34.179Z,37.42
2023-04-26T01:38:01.908Z,36.83
2023-04-26T01:40:28.330Z,37.13
2023-04-26T01:42:54.776Z,37.20
2023-04-26T01:45:21.205Z,37.28
2023-04-26T01:48:06.538Z,37.05
2023-04-26T01:50:33.126Z,37.02
2023-04-26T01:52:59.564Z,37.11
2023-04-26T01:55:26.078Z,37.30
2023-04-26T01:57:52.519Z,37.29
2023-04-26T02:00:19.321Z,37.29
2023-04-26T02:02:49.103Z,37.17
2023-04-26T02:05:15.684Z,37.00
2023-04-26T02:07:42.198Z,37.23
2023-04-26T02:10:09.096Z,37.25
2023-04-26T02:12:35.832Z,37.24
2023-04-26T02:15:02.506Z,36.91
2023-04-26T02:17:29.258Z,37.17
2023-04-26T02:19:56.692Z,37.33
2023-04-26T02:22:25.356Z,37.32
2023-04-26T02:24:52.818Z,37.45
2023-04-26T02:27:19.962Z,37.06
2023-04-26T02:29:46.787Z,37.01
2023-04-26T02:32:14.318Z,37.32
2023-04-26T02:34:41.332Z,37.05
2023-04-26T02:37:07.972Z,37.32
2023-04-26T02:39:34.524Z,37.19
2023-04-26T02:42:01.178Z,37.20
2023-04-26T02:44:31.126Z,37.33
2023-04-26T02:46:58.079Z,37.31
2023-04-26T02:49:24.836Z,37.04
2023-04-26T02:51:51.846Z,37.29
2023-04-26T02:54:18.882Z,37.36
2023-04-26T02:56:45.495Z,37.15
2023-04-26T02:59:11.973Z,37.19
2023-04-26T03:01:38.644Z,37.00
2023-04-26T03:04:05.718Z,36.95
2023-04-26T03:06:34.155Z,36.96
2023-04-26T03:09:00.930Z,37.32
2023-04-26T03:11:27.614Z,37.19
2023-04-26T03:13:54.115Z,36.82
2023-04-26T03:16:21.435Z,36.92
2023-04-26T03:18:48.401Z,37.13
2023-04-26T03:21:14.972Z,37.33
2023-04-26T03:23:41.811Z,37.27
2023-04-26T03:26:09.079Z,37.25
2023-04-26T03:28:35.782Z,37.08
2023-04-26T03:31:02.990Z,37.07
2023-04-26T03:33:31.575Z,37.21
2023-04-26T03:35:58.070Z,37.00
2023-04-26T03:38:25.035Z,37.25
2023-04-26T03:40:52.038Z,37.06
2023-04-26T03:43:18.490Z,37.02
2023-04-26T03:45:48.762Z,37.08
2023-04-26T03:48:16.503Z,36.94
2023-04-26T03:50:44.886Z,37.33
2023-04-26T03:53:11.940Z,37.16
2023-04-26T03:55:38.571Z,37.14
2023-04-26T03:58:07.886Z,37.19
2023-04-26T04:00:37.354Z,37.39
2023-04-26T04:03:04.149Z,37.09
2023-04-26T04:05:31.497Z,37.12
2023-04-26T04:07:59.366Z,37.02
2023-04-26T04:10:26.039Z,36.92
2023-04-26T04:12:53.463Z,37.03
2023-04-26T04:15:21.100Z,37.03
2023-04-26T04:17:48.617Z,37.22
2023-04-26T04:20:15.296Z,37.27
2023-04-26T04:22:42.557Z,37.46
2023-04-26T04:25:13.761Z,36.88
2023-04-26T04:27:42.643Z,37.27
2023-04-26T04:30:10.679Z,37.02
2023-04-26T04:32:37.969Z,37.16
2023-04-26T04:35:05.783Z,37.04
2023-04-26T04:37:33.541Z,37.27
2023-04-26T04:40:00.806Z,37.08
2023-04-26T04:42:28.167Z,37.11
2023-04-26T04:44:57.544Z,37.01
2023-04-26T04:47:25.784Z,37.30
2023-04-26T04:49:53.795Z,36.98
2023-04-26T04:52:23.489Z,37.13
2023-04-26T04:54:49.992Z,37.11
2023-04-26T04:57:16.937Z,37.05
2023-04-26T04:59:45.325Z,36.95
2023-04-26T05:02:11.980Z,37.08
2023-04-26T05:04:38.997Z,37.09
2023-04-26T05:07:06.889Z,36.95
2023-04-26T05:09:34.786Z,36.93
2023-04-26T05:12:01.521Z,37.25
2023-04-26T05:14:29.950Z,37.23
2023-04-26T05:16:56.635Z,37.28
2023-04-26T05:19:23.245Z,37.02
2023-04-26T05:21:49.821Z,37.27
2023-04-26T05:24:17.025Z,37.14
2023-04-26T05:26:43.683Z,37.04
2023-04-26T05:29:10.192Z,36.95
2023-04-26T05:31:57.695Z,37.10
2023-04-26T05:34:51.114Z,37.21
2023-04-26T05:37:17.623Z,36.89
2023-04-26T05:39:44.478Z,37.04
2023-04-26T05:42:11.096Z,37.01
2023-04-26T05:44:38.599Z,36.97
2023-04-26T05:47:05.286Z,37.17
2023-04-26T05:49:31.877Z,36.97
2023-04-26T05:52:00.798Z,36.94
2023-04-26T05:54:27.999Z,36.78
2023-04-26T05:56:55.815Z,36.93
2023-04-26T05:59:24.658Z,37.39
2023-04-26T06:01:51.704Z,37.28
2023-04-26T06:04:18.658Z,36.95
2023-04-26T06:07:00.955Z,36.94
2023-04-26T06:09:27.680Z,36.86
2023-04-26T06:11:54.351Z,37.07
2023-04-26T06:14:29.979Z,36.97
2023-04-26T06:16:58.526Z,37.04
2023-04-26T06:19:27.004Z,37.18
2023-04-26T06:21:55.342Z,37.15
2023-04-26T06:24:23.615Z,36.90
2023-04-26T06:26:50.119Z,36.99
2023-04-26T06:29:17.031Z,36.71
2023-04-26T06:31:43.623Z,37.13
2023-04-26T06:34:10.166Z,36.90
2023-04-26T06:36:36.905Z,37.27
2023-04-26T06:39:03.941Z,36.88
2023-04-26T06:41:31.196Z,37.01
2023-04-26T06:43:57.770Z,37.11
2023-04-26T06:46:30.613Z,36.83
2023-04-26T06:48:57.099Z,37.15
2023-04-26T06:51:24.875Z,36.91
2023-04-26T06:53:52.602Z,36.98
2023-04-26T06:56:19.336Z,36.79
2023-04-26T06:59:08.015Z,37.16
2023-04-26T07:01:35.502Z,36.94
2023-04-26T07:04:03.822Z,36.73
2023-04-26T07:06:31.438Z,37.05
2023-04-26T07:09:02.788Z,36.98
2023-04-26T07:11:29.652Z,37.09
2023-04-26T07:13:56.861Z,37.01
2023-04-26T07:16:24.168Z,37.10
2023-04-26T07:18:52.697Z,36.85
2023-04-26T07:21:19.223Z,36.87
2023-04-26T07:23:46.008Z,37.03
2023-04-26T07:26:12.520Z,37.19
2023-04-26T07:28:39.002Z,37.01
2023-04-26T07:31:07.836Z,37.15
2023-04-26T07:33:35.648Z,36.85
2023-04-26T07:36:02.279Z,36.69
2023-04-26T07:38:28.775Z,36.91
2023-04-26T07:40:55.435Z,36.99
2023-04-26T07:43:23.200Z,36.98
2023-04-26T07:45:49.737Z,36.94
2023-04-26T07:48:17.020Z,36.67
2023-04-26T07:50:43.597Z,36.66
2023-04-26T07:53:10.312Z,36.93
2023-04-26T07:55:37.591Z,36.80
2023-04-26T07:58:04.528Z,36.77
2023-04-26T08:00:31.068Z,36.83
2023-04-26T08:02:57.925Z,36.78
2023-04-26T08:05:24.922Z,36.79
2023-04-26T08:07:51.643Z,37.11
2023-04-26T08:10:18.233Z,36.77
2023-04-26T08:12:44.841Z,36.98
2023-04-26T08:15:12.068Z,36.88
2023-04-26T08:17:38.735Z,36.95
2023-04-26T08:20:06.096Z,36.75
2023-04-26T08:22:32.612Z,36.94
2023-04-26T08:24:59.089Z,36.82
2023-04-26T08:27:26.048Z,36.62
2023-04-26T08:29:52.503Z,36.75
2023-04-26T08:32:19.065Z,36.94
2023-04-26T08:34:45.588Z,36.68
2023-04-26T08:37:13.939Z,36.87
2023-04-26T08:39:41.790Z,36.80
2023-04-26T08:42:16.687Z,37.00
2023-04-26T08:44:44.818Z,36.81
2023-04-26T08:47:18.633Z,36.91
2023-04-26T08:49:59.672Z,36.70
2023-04-26T08:52:32.079Z,36.77
2023-04-26T08:55:00.347Z,36.65
2023-04-26T08:57:27.213Z,36.92
2023-04-26T08:59:56.266Z,36.42
2023-04-26T09:02:23.917Z,36.68
2023-04-26T09:04:51.450Z,36.80
2023-04-26T09:07:26.393Z,36.70
2023-04-26T09:09:54.878Z,36.62
2023-04-26T09:12:21.446Z,36.60
2023-04-26T09:14:48.337Z,36.99
2023-04-26T09:17:37.971Z,36.69
2023-04-26T09:20:27.713Z,36.62
2023-04-26T09:23:17.016Z,36.91
2023-04-26T09:25:43.616Z,36.88
2023-04-26T09:28:22.395Z,37.02
2023-04-26T09:30:49.215Z,36.97
2023-04-26T09:33:15.941Z,36.93
2023-04-26T09:35:44.108Z,36.56
2023-04-26T09:38:13.968Z,36.68
2023-04-26T09:40:46.138Z,36.64
2023-04-26T09:43:15.923Z,36.84
2023-04-26T09:45:49.392Z,36.82
2023-04-26T09:48:23.187Z,36.77
2023-04-26T09:50:54.815Z,36.84
2023-04-26T09:53:37.135Z,36.53
2023-04-26T09:56:14.892Z,36.88
2023-04-26T09:58:47.759Z,36.70
2023-04-26T10:01:18.841Z,36.74
2023-04-26T10:03:47.228Z,36.93
2023-04-26T10:06:14.204Z,36.90
2023-04-26T10:08:40.976Z,36.56
2023-04-26T10:11:07.960Z,36.94
2023-04-26T10:13:35.095Z,36.70
2023-04-26T10:16:02.377Z,36.96
2023-04-26T10:18:30.431Z,36.63
2023-04-26T10:21:05.444Z,36.88
2023-04-26T10:23:33.196Z,36.95
2023-04-26T10:25:59.750Z,36.97
2023-04-26T10:28:44.330Z,36.66
2023-04-26T10:31:11.745Z,36.65
2023-04-26T10:33:38.395Z,36.67
2023-04-26T10:36:08.852Z,36.67
2023-04-26T10:38:37.615Z,36.91
2023-04-26T10:41:30.215Z,36.86
2023-04-26T10:43:59.698Z,36.92
2023-04-26T10:46:43.209Z,36.72
2023-04-26T10:49:14.929Z,36.49
2023-04-26T10:51:41.888Z,36.51
2023-04-26T10:54:09.160Z,36.69
2023-04-26T10:56:38.616Z,37.01
2023-04-26T11:01:42.215Z,36.64
2023-04-26T11:04:10.416Z,36.56
2023-04-26T11:06:54.286Z,36.86
2023-04-26T11:09:34.803Z,36.58
2023-04-26T11:12:01.473Z,36.88
2023-04-26T11:14:28.402Z,36.55
2023-04-26T11:16:54.935Z,36.86
2023-04-26T11:19:21.418Z,36.55
2023-04-26T11:21:47.919Z,37.00
2023-04-26T11:24:17.440Z,37.03
2023-04-26T11:26:51.270Z,36.54
2023-04-26T11:29:21.373Z,36.87
2023-04-26T11:31:55.025Z,36.50
2023-04-26T11:34:41.938Z,36.81
2023-04-26T11:37:08.480Z,36.91
2023-04-26T11:39:36.847Z,36.90
2023-04-26T11:42:09.961Z,36.64
2023-04-26T11:44:37.929Z,36.58
2023-04-26T11:47:06.646Z,36.64
2023-04-26T11:49:37.532Z,36.89
2023-04-26T11:52:05.161Z,36.71
2023-04-26T11:54:34.165Z,36.94
2023-04-26T11:57:01.040Z,36.97
2023-04-26T11:59:31.724Z,36.55
2023-04-26T12:01:58.847Z,36.71
2023-04-26T12:04:30.436Z,36.66
2023-04-26T12:06:58.166Z,36.51
2023-04-26T12:09:27.963Z,36.59
2023-04-26T12:12:16.797Z,36.66
2023-04-26T12:14:43.386Z,36.53
2023-04-26T12:17:10.492Z,36.44
2023-04-26T12:19:37.992Z,36.56
2023-04-26T12:22:06.037Z,36.57
2023-04-26T12:24:34.624Z,36.65
2023-04-26T12:27:02.923Z,36.63
2023-04-26T12:29:30.810Z,36.70
2023-04-26T12:31:58.906Z,36.73
2023-04-26T12:34:25.708Z,36.50
2023-04-26T12:36:52.249Z,36.55
2023-04-26T12:39:18.873Z,36.75
2023-04-26T12:41:46.304Z,36.46
2023-04-26T12:44:14.359Z,36.48
2023-04-26T12:46:41.134Z,36.64
2023-04-26T12:49:07.858Z,36.45
2023-04-26T12:51:34.654Z,36.39
2023-04-26T12:54:01.183Z,36.31
2023-04-26T12:56:29.660Z,36.51
2023-04-26T12:58:56.169Z,36.31
2023-04-26T13:01:22.760Z,36.82
2023-04-26T13:03:49.513Z,36.70
2023-04-26T13:06:16.726Z,36.45
2023-04-26T13:08:43.327Z,36.53
2023-04-26T13:11:09.926Z,36.45
2023-04-26T13:13:43.910Z,36.38
2023-04-26T13:16:12.554Z,36.62
2023-04-26T13:18:39.640Z,36.49
2023-04-26T13:21:06.339Z,36.72
2023-04-26T13:23:32.897Z,36.53
2023-04-26T13:25:59.364Z,36.41
2023-04-26T13:28:25.915Z,36.48
2023-04-26T13:30:52.800Z,36.71
2023-04-26T13:33:21.273Z,36.69
2023-04-26T13:35:48.208Z,36.56
2023-04-26T13:38:16.035Z,36.67
2023-04-26T13:40:43.225Z,36.73
2023-04-26T13:43:09.818Z,36.90
2023-04-26T13:45:36.447Z,36.44
2023-04-26T13:48:02.994Z,36.60
2023-04-26T13:50:29.770Z,36.35
2023-04-26T13:52:56.770Z,36.77
2023-04-26T13:55:23.526Z,36.47
2023-04-26T13:57:49.973Z,36.48
2023-04-26T14:00:17.056Z,36.68
2023-04-26T14:02:46.103Z,36.41
2023-04-26T14:05:13.116Z,36.79
2023-04-26T14:07:40.877Z,36.66
2023-04-26T14:10:08.002Z,36.65
2023-04-26T14:12:35.010Z,36.41
2023-04-26T14:15:04.278Z,36.43
2023-04-26T14:17:32.386Z,36.33
2023-04-26T14:19:59.093Z,36.67
2023-04-26T14:22:27.306Z,36.55
2023-04-26T14:24:53.931Z,36.54
2023-04-26T14:27:20.927Z,36.57
2023-04-26T14:29:47.647Z,36.40
2023-04-26T14:32:14.220Z,36.60
2023-04-26T14:34:40.893Z,36.72
2023-04-26T14:37:07.599Z,36.32
2023-04-26T14:39:34.389Z,36.71
2023-04-26T14:42:01.653Z,36.50
2023-04-26T14:44:28.808Z,36.67
2023-04-26T14:46:55.598Z,36.62
2023-04-26T14:49:22.420Z,36.27
2023-04-26T14:51:51.261Z,36.51
2023-04-26T14:54:19.216Z,36.64
2023-04-26T14:56:47.085Z,36.33
2023-04-26T14:59:13.667Z,36.79
2023-04-26T15:01:40.343Z,36.57
2023-04-26T15:04:07.182Z,36.29
2023-04-26T15:06:34.327Z,36.59
2023-04-26T15:09:01.330Z,36.60
2023-04-26T15:11:27.818Z,36.48
2023-04-26T15:13:54.302Z,36.32
2023-04-26T15:16:20.869Z,36.57
2023-04-26T15:18:47.506Z,36.45
2023-04-26T15:21:17.650Z,36.62
2023-04-26T15:23:44.138Z,36.26
2023-04-26T15:26:10.671Z,36.54
2023-04-26T15:28:37.261Z,36.61
2023-04-26T15:31:05.369Z,36.45
2023-04-26T15:33:32.446Z,36.36
2023-04-26T15:35:59.145Z,36.67
2023-04-26T15:38:25.997Z,36.55
2023-04-26T15:40:53.659Z,36.33
2023-04-26T15:43:20.485Z,36.40
2023-04-26T15:45:47.237Z,36.37
2023-04-26T15:48:13.874Z,36.40
2023-04-26T15:50:40.747Z,36.54
2023-04-26T15:53:07.310Z,36.30
2023-04-26T15:55:33.811Z,36.49
2023-04-26T15:58:00.463Z,36.38
2023-04-26T16:00:28.349Z,36.44
2023-04-26T16:02:55.151Z,36.29
2023-04-26T16:05:21.796Z,36.52
2023-04-26T16:07:48.410Z,36.30
2023-04-26T16:10:14.869Z,36.36
2023-04-26T16:12:42.833Z,36.68
2023-04-26T16:15:10.410Z,36.59
2023-04-26T16:17:37.695Z,36.44
2023-04-26T16:20:06.775Z,36.34
2023-04-26T16:22:34.402Z,36.59
2023-04-26T16:25:06.731Z,36.67
2023-04-26T16:27:33.618Z,36.37
2023-04-26T16:30:00.204Z,36.47
2023-04-26T16:32:26.920Z,36.33
2023-04-26T16:34:53.577Z,36.26
2023-04-26T16:37:20.104Z,36.68
2023-04-26T16:39:46.660Z,36.35
2023-04-26T16:42:13.192Z,36.35
2023-04-26T16:44:40.767Z,36.51
2023-04-26T16:47:07.268Z,36.36
2023-04-26T16:49:34.218Z,36.48
2023-04-26T16:52:01.179Z,36.43
2023-04-26T16:54:28.135Z,36.48
2023-04-26T16:56:54.828Z,36.35
2023-04-26T16:59:21.433Z,36.44
2023-04-26T17:01:48.052Z,36.57
2023-04-26T17:04:14.782Z,36.25
2023-04-26T17:06:41.488Z,36.70
2023-04-26T17:09:08.804Z,36.63
2023-04-26T17:11:37.285Z,36.67
2023-04-26T17:14:04.539Z,36.37
2023-04-26T17:16:31.648Z,36.44
2023-04-26T17:18:58.533Z,36.70
2023-04-26T17:21:25.563Z,36.70
2023-04-26T17:23:52.450Z,36.52
2023-04-26T17:26:19.028Z,36.38
2023-04-26T17:28:45.800Z,36.52
2023-04-26T17:31:12.359Z,36.63
2023-04-26T17:33:38.947Z,36.45
2023-04-26T17:36:06.237Z,36.49
2023-04-26T17:38:32.819Z,36.38
2023-04-26T17:40:59.606Z,36.62
2023-04-26T17:43:26.153Z,36.44
2023-04-26T17:45:52.956Z,36.62
2023-04-26T17:48:19.656Z,36.37
2023-04-26T17:50:46.292Z,36.34
2023-04-26T17:53:12.943Z,36.64
2023-04-26T17:55:39.413Z,36.52
2023-04-26T17:58:06.332Z,36.51
2023-04-26T18:00:32.927Z,36.78
2023-04-26T18:03:02.776Z,36.55
2023-04-26T18:05:30.111Z,36.35
2023-04-26T18:07:56.775Z,36.53
2023-04-26T18:10:23.414Z,36.58
2023-04-26T18:12:50.075Z,36.42
2023-04-26T18:15:16.572Z,36.85
2023-04-26T18:17:43.609Z,36.49
2023-04-26T18:20:13.088Z,36.43
2023-04-26T18:22:40.062Z,36.55
2023-04-26T18:25:07.168Z,36.77
2023-04-26T18:27:33.789Z,36.43
2023-04-26T18:30:00.712Z,36.50
2023-04-26T18:32:27.222Z,36.50
2023-04-26T18:34:53.889Z,36.35
2023-04-26T18:37:20.451Z,36.87
2023-04-26T18:39:47.052Z,36.80
2023-04-26T18:42:13.616Z,36.56
2023-04-26T18:44:40.080Z,36.70
2023-04-26T18:47:06.602Z,36.50
2023-04-26T18:49:33.115Z,36.62
2023-04-26T18:51:59.920Z,36.73
2023-04-26T18:54:26.972Z,36.72
2023-04-26T18:56:54.436Z,36.55
2023-04-26T18:59:21.497Z,36.65
2023-04-26T19:01:49.353Z,36.62
2023-04-26T19:04:16.285Z,36.44
2023-04-26T19:06:42.881Z,36.56
2023-04-26T19:09:13.736Z,36.67
2023-04-26T19:11:40.491Z,36.45
2023-04-26T19:14:07.283Z,36.43
2023-04-26T19:16:35.156Z,36.76
2023-04-26T19:19:01.897Z,36.49
2023-04-26T19:21:28.389Z,36.58
2023-04-26T19:23:55.059Z,36.90
2023-04-26T19:26:21.612Z,36.74
2023-04-26T19:28:48.234Z,36.46
2023-04-26T19:31:15.065Z,36.91
2023-04-26T19:33:41.699Z,36.68
2023-04-26T19:36:09.316Z,36.78
2023-04-26T19:38:35.976Z,36.33
2023-04-26T19:41:02.740Z,36.76
2023-04-26T19:43:29.284Z,36.83
2023-04-26T19:45:55.899Z,36.36
2023-04-26T19:48:22.773Z,36.71
2023-04-26T19:50:49.274Z,36.49
2023-04-26T19:53:15.805Z,36.50
2023-04-26T19:55:42.601Z,36.61
2023-04-26T19:58:10.575Z,36.62
2023-04-26T20:00:38.577Z,36.79
2023-04-26T20:03:05.748Z,36.57
2023-04-26T20:05:33.684Z,36.70
2023-04-26T20:08:00.760Z,36.69
2023-04-26T20:10:30.961Z,36.89
2023-04-26T20:12:57.935Z,36.51
2023-04-26T20:15:24.542Z,36.89
2023-04-26T20:17:51.288Z,36.54
2023-04-26T20:20:17.835Z,36.88
2023-04-26T20:22:44.544Z,36.69
2023-04-26T20:25:11.187Z,36.69
2023-04-26T20:27:38.081Z,36.54
2023-04-26T20:30:05.239Z,36.68
2023-04-26T20:32:31.823Z,36.76
2023-04-26T20:34:58.478Z,36.87
2023-04-26T20:37:24.924Z,36.45
2023-04-26T20:39:51.434Z,36.89
2023-04-26T20:42:17.933Z,36.52
2023-04-26T20:44:44.482Z,36.77
2023-04-26T20:47:10.985Z,36.80
2023-04-26T20:49:37.528Z,36.82
2023-04-26T20:52:04.402Z,36.70
2023-04-26T20:54:31.799Z,36.83
2023-04-26T20:56:58.532Z,36.76
2023-04-26T20:59:25.901Z,36.72
2023-04-26T21:01:53.544Z,36.77
2023-04-26T21:04:20.411Z,36.92
2023-04-26T21:06:47.323Z,36.82
2023-04-26T21:09:13.857Z,36.64
2023-04-26T21:11:40.532Z,36.84
2023-04-26T21:14:07.191Z,36.42
2023-04-26T21:16:33.691Z,36.51
2023-04-26T21:19:00.286Z,36.77
2023-04-26T21:21:28.626Z,36.58
2023-04-26T21:23:55.200Z,36.62
2023-04-26T21:26:21.860Z,36.75
2023-04-26T21:28:48.628Z,36.93
2023-04-26T21:31:15.167Z,36.88
2023-04-26T21:33:41.724Z,36.64
2023-04-26T21:36:08.408Z,36.89
2023-04-26T21:38:34.918Z,36.39
2023-04-26T21:41:01.432Z,36.62
2023-04-26T21:43:27.903Z,36.94
2023-04-26T21:45:58.458Z,36.63
2023-04-26T21:48:26.171Z,36.70
2023-04-26T21:50:52.827Z,36.70
2023-04-26T21:53:19.357Z,36.57
2023-04-26T21:55:52.557Z,36.75
2023-04-26T21:58:20.078Z,36.93
2023-04-26T22:00:46.773Z,36.52
2023-04-26T22:03:14.522Z,36.89
2023-04-26T22:05:41.185Z,36.84
2023-04-26T22:08:07.715Z,36.82
2023-04-26T22:10:34.663Z,36.88
2023-04-26T22:13:01.194Z,36.70
2023-04-26T22:15:28.252Z,36.67
2023-04-26T22:17:54.751Z,36.79
2023-04-26T22:20:21.717Z,36.64
2023-04-26T22:22:48.327Z,36.63
2023-04-26T22:25:14.840Z,36.85
2023-04-26T22:27:41.332Z,36.94
2023-04-26T22:30:22.930Z,36.93
2023-04-26T22:32:54.204Z,36.55
2023-04-26T22:35:21.647Z,36.69
2023-04-26T22:37:48.127Z,36.63
2023-04-26T22:40:15.527Z,36.97
2023-04-26T22:42:42.782Z,37.06
2023-04-26T22:45:10.738Z,36.89
2023-04-26T22:47:37.531Z,36.62
2023-04-26T22:50:04.976Z,36.75
2023-04-26T22:52:32.288Z,36.78
2023-04-26T22:54:59.966Z,36.71
2023-04-26T22:57:26.986Z,36.57
2023-04-26T22:59:53.423Z,36.65
2023-04-26T23:02:20.847Z,36.82
2023-04-26T23:04:47.747Z,37.00
2023-04-26T23:07:14.321Z,36.81
2023-04-26T23:09:41.202Z,36.69
2023-04-26T23:12:07.818Z,37.00
2023-04-26T23:14:35.046Z,36.53
2023-04-26T23:17:02.623Z,36.95
2023-04-26T23:19:29.311Z,36.80
2023-04-26T23:21:55.906Z,36.87
2023-04-26T23:24:22.431Z,37.01
2023-04-26T23:26:48.959Z,36.70
2023-04-26T23:29:15.613Z,37.12
2023-04-26T23:31:42.424Z,36.71
2023-04-26T23:34:09.070Z,36.77
2023-04-26T23:36:35.632Z,36.75
2023-04-26T23:39:02.172Z,37.05
2023-04-26T23:41:28.691Z,36.76
2023-04-26T23:43:55.359Z,36.88
2023-04-26T23:46:21.917Z,36.56
2023-04-26T23:48:48.377Z,37.09
2023-04-26T23:51:14.864Z,36.77
2023-04-26T23:53:41.307Z,36.95
2023-04-26T23:56:07.793Z,36.68
2023-04-26T23:58:34.305Z,36.54
